Time;durP1;ratioP1;P1;durP2;ratioP2;P2;SDS_P1;SDS_P2;PMS_P1;PMS_P2;Temp;Humidity;BMP_temperature;BMP_pressure;BME280_temperature;BME280_humidity;BME280_pressure;Samples;Min_cycle;Max_cycle;Signal;HPM_P1;HPM_P2
2022/08/16 00:01:50;;;;;;;1.00;1.00;;;19.60;99.90;;;;;;5065019;28;20209;-66
2022/08/16 00:04:17;;;;;;;1.27;1.27;;;19.60;99.90;;;;;;5066287;28;20681;-66
2022/08/16 00:06:46;;;;;;;1.00;1.00;;;19.60;99.90;;;;;;5065360;28;20203;-67
2022/08/16 00:09:13;;;;;;;1.00;1.00;;;19.60;99.90;;;;;;5066422;28;20225;-65
2022/08/16 00:11:41;;;;;;;2.28;1.30;;;19.70;99.90;;;;;;5066224;28;20294;-67
2022/08/16 00:14:11;;;;;;;0.90;0.90;;;19.70;99.90;;;;;;5066064;28;20549;-67
2022/08/16 00:16:38;;;;;;;1.07;1.07;;;19.60;99.90;;;;;;5066297;28;20231;-67
2022/08/16 00:19:05;;;;;;;1.00;1.00;;;19.60;99.90;;;;;;5063048;28;20426;-66
2022/08/16 00:21:34;;;;;;;1.03;1.03;;;19.60;99.90;;;;;;5068829;28;20304;-67
2022/08/16 00:24:02;;;;;;;1.00;1.00;;;19.60;99.90;;;;;;5062821;28;20283;-67
2022/08/16 00:26:29;;;;;;;1.40;1.10;;;19.70;99.90;;;;;;5062802;28;20291;-69
2022/08/16 00:28:56;;;;;;;1.10;1.10;;;19.60;99.90;;;;;;5065529;28;20238;-66
2022/08/16 00:31:23;;;;;;;1.03;1.03;;;19.70;99.90;;;;;;5066161;28;20200;-67
2022/08/16 00:33:50;;;;;;;1.37;1.27;;;19.60;99.90;;;;;;5063937;28;20289;-67
2022/08/16 00:36:17;;;;;;;1.33;1.23;;;19.60;99.90;;;;;;5068476;28;20283;-67
2022/08/16 00:38:44;;;;;;;1.17;1.17;;;19.60;99.90;;;;;;5065646;28;20222;-66
2022/08/16 00:41:12;;;;;;;1.00;1.00;;;19.50;99.90;;;;;;5065720;28;20195;-67
2022/08/16 00:43:39;;;;;;;0.90;0.90;;;19.40;99.90;;;;;;5062884;28;20775;-67
2022/08/16 00:46:11;;;;;;;1.20;1.20;;;19.50;99.90;;;;;;5064577;28;20192;-67
2022/08/16 00:48:40;;;;;;;1.10;1.10;;;19.50;99.90;;;;;;5063885;28;20414;-67
2022/08/16 00:51:08;;;;;;;0.90;0.90;;;19.50;99.90;;;;;;5065863;28;20199;-67
2022/08/16 00:53:35;;;;;;;1.30;1.23;;;19.50;99.90;;;;;;5064857;28;20204;-67
2022/08/16 00:56:07;;;;;;;1.00;1.00;;;19.40;99.90;;;;;;5064902;28;20216;-66
2022/08/16 00:58:38;;;;;;;1.20;1.20;;;19.50;99.90;;;;;;5065778;28;20251;-67
2022/08/16 01:01:07;;;;;;;1.17;1.17;;;19.50;99.90;;;;;;5061130;28;20210;-67
2022/08/16 01:03:35;;;;;;;1.10;1.10;;;19.60;99.90;;;;;;5057771;28;20287;-67
2022/08/16 01:06:03;;;;;;;1.00;1.00;;;19.70;99.90;;;;;;5066130;28;20207;-67
2022/08/16 01:08:31;;;;;;;1.10;1.10;;;19.70;99.90;;;;;;5059336;28;20231;-68
2022/08/16 01:10:58;;;;;;;1.23;1.10;;;19.70;99.90;;;;;;5064063;28;20310;-67
2022/08/16 01:13:28;;;;;;;1.00;1.00;;;19.80;99.90;;;;;;5059473;28;20204;-67
2022/08/16 01:16:00;;;;;;;1.10;1.10;;;19.80;99.90;;;;;;5067876;28;20227;-67
2022/08/16 01:18:31;;;;;;;1.10;1.10;;;19.80;99.90;;;;;;5063206;28;20569;-67
2022/08/16 01:21:04;;;;;;;1.10;1.10;;;19.80;99.90;;;;;;5067672;28;20282;-66
2022/08/16 01:23:45;;;;;;;1.40;1.30;;;19.80;99.90;;;;;;5074380;28;20227;-66
2022/08/16 01:26:12;;;;;;;1.00;1.00;;;19.80;99.90;;;;;;5045320;28;20283;-67
2022/08/16 01:28:40;;;;;;;1.23;1.20;;;19.70;99.90;;;;;;5067862;28;20258;-67
2022/08/16 01:31:09;;;;;;;1.70;1.10;;;19.70;99.90;;;;;;5067265;28;20282;-67
2022/08/16 01:33:36;;;;;;;0.93;0.93;;;19.70;99.90;;;;;;5071809;28;20212;-68
2022/08/16 01:36:06;;;;;;;1.67;1.20;;;19.70;99.90;;;;;;5076397;28;20220;-66
2022/08/16 01:38:35;;;;;;;1.13;1.13;;;19.80;99.90;;;;;;5083099;28;20223;-68
2022/08/16 01:41:07;;;;;;;1.20;1.20;;;19.80;99.90;;;;;;5067757;28;20249;-66
2022/08/16 01:43:37;;;;;;;1.20;1.20;;;19.80;99.90;;;;;;5067902;28;20203;-67
2022/08/16 01:46:06;;;;;;;1.20;1.20;;;19.90;99.90;;;;;;5067736;28;20238;-67
2022/08/16 01:48:33;;;;;;;1.13;1.13;;;19.90;99.90;;;;;;5071337;28;20660;-68
2022/08/16 01:51:02;;;;;;;1.10;1.10;;;19.90;99.90;;;;;;5061773;28;20196;-67
2022/08/16 01:53:30;;;;;;;1.10;1.10;;;19.90;99.90;;;;;;5056418;28;20300;-67
2022/08/16 01:55:56;;;;;;;1.07;1.07;;;19.90;99.90;;;;;;5066729;28;20603;-67
2022/08/16 01:58:25;;;;;;;1.33;1.30;;;19.80;99.90;;;;;;5051544;28;20303;-66
2022/08/16 02:00:52;;;;;;;1.17;1.17;;;19.90;99.90;;;;;;5068454;28;20204;-67
2022/08/16 02:03:19;;;;;;;1.20;1.20;;;19.90;99.90;;;;;;5061002;28;20644;-68
2022/08/16 02:05:47;;;;;;;0.87;0.87;;;19.90;99.90;;;;;;5068510;28;20203;-68
2022/08/16 02:08:14;;;;;;;0.90;0.90;;;20.00;99.90;;;;;;5060405;28;20223;-68
2022/08/16 02:10:41;;;;;;;1.20;1.13;;;19.90;99.90;;;;;;5061175;28;20204;-66
2022/08/16 02:13:08;;;;;;;1.10;1.10;;;19.90;99.90;;;;;;5066384;28;20200;-67
2022/08/16 02:15:39;;;;;;;1.20;1.20;;;19.90;99.90;;;;;;5060866;28;20862;-68
2022/08/16 02:18:08;;;;;;;1.30;1.30;;;19.90;99.90;;;;;;5049469;28;20230;-68
2022/08/16 02:20:38;;;;;;;1.10;1.00;;;19.90;99.90;;;;;;5057688;28;20250;-67
2022/08/16 02:23:06;;;;;;;1.40;1.30;;;19.90;99.90;;;;;;5049406;28;20209;-68
2022/08/16 02:25:35;;;;;;;1.50;1.40;;;19.90;99.90;;;;;;5062799;28;20203;-67
2022/08/16 02:28:02;;;;;;;1.13;1.13;;;19.90;99.90;;;;;;5063813;28;20255;-67
2022/08/16 02:30:30;;;;;;;1.20;1.00;;;19.80;99.90;;;;;;5065466;28;20207;-67
2022/08/16 02:32:59;;;;;;;1.30;1.30;;;19.80;99.90;;;;;;5063939;28;20299;-67
2022/08/16 02:35:27;;;;;;;1.10;1.10;;;19.90;99.90;;;;;;5064042;28;20313;-67
2022/08/16 02:37:55;;;;;;;1.17;1.17;;;19.90;99.90;;;;;;5064006;28;20255;-67
2022/08/16 02:40:23;;;;;;;1.73;1.17;;;19.80;99.90;;;;;;5064655;28;20211;-66
2022/08/16 02:42:51;;;;;;;1.20;1.20;;;19.80;99.90;;;;;;5067120;28;20295;-66
2022/08/16 02:45:20;;;;;;;1.00;1.00;;;19.80;99.90;;;;;;5064381;28;20205;-68
2022/08/16 02:47:47;;;;;;;1.20;1.20;;;19.80;99.90;;;;;;5063800;28;20223;-66
2022/08/16 02:50:16;;;;;;;1.33;1.23;;;19.80;99.90;;;;;;5059777;28;20234;-67
2022/08/16 02:52:43;;;;;;;1.10;1.10;;;19.80;99.90;;;;;;5052644;28;20200;-67
2022/08/16 02:55:12;;;;;;;1.10;1.10;;;19.70;99.90;;;;;;5063465;28;20226;-67
2022/08/16 02:57:39;;;;;;;1.10;1.10;;;19.70;99.90;;;;;;5062162;28;20227;-68
2022/08/16 03:00:10;;;;;;;1.10;1.10;;;19.60;99.90;;;;;;5052564;28;20537;-67
2022/08/16 03:02:37;;;;;;;1.00;1.00;;;19.70;99.90;;;;;;5063578;28;20287;-67
2022/08/16 03:05:06;;;;;;;1.10;1.10;;;19.60;99.90;;;;;;5061482;28;20286;-68
2022/08/16 03:07:34;;;;;;;1.30;1.30;;;19.70;99.90;;;;;;5064396;28;20255;-67
2022/08/16 03:10:01;;;;;;;1.20;1.20;;;19.70;99.90;;;;;;5062823;28;20231;-67
2022/08/16 03:12:28;;;;;;;1.20;1.20;;;19.70;99.90;;;;;;5066833;28;20218;-67
2022/08/16 03:14:55;;;;;;;1.33;1.30;;;19.70;99.90;;;;;;5064414;28;20314;-67
2022/08/16 03:17:22;;;;;;;1.10;1.10;;;19.70;99.90;;;;;;5058703;28;20726;-68
2022/08/16 03:19:49;;;;;;;1.20;1.20;;;19.70;99.90;;;;;;5065957;28;20206;-69
2022/08/16 03:22:16;;;;;;;1.00;1.00;;;19.80;99.90;;;;;;5059795;28;20206;-70
2022/08/16 03:24:44;;;;;;;1.10;1.10;;;19.70;99.90;;;;;;5067108;28;20207;-68
2022/08/16 03:27:11;;;;;;;1.20;1.20;;;19.70;99.90;;;;;;5049022;28;20200;-65
2022/08/16 03:29:38;;;;;;;1.10;1.10;;;19.70;99.90;;;;;;5059988;28;20323;-66
2022/08/16 03:32:06;;;;;;;1.38;1.30;;;19.60;99.90;;;;;;5053410;28;20259;-69
2022/08/16 03:34:33;;;;;;;1.30;1.30;;;19.60;99.90;;;;;;5054701;28;20226;-67
2022/08/16 03:37:01;;;;;;;1.33;1.20;;;19.60;99.90;;;;;;5054797;28;20224;-68
2022/08/16 03:39:29;;;;;;;1.30;1.23;;;19.50;99.90;;;;;;5060666;28;20285;-67
2022/08/16 03:41:57;;;;;;;1.20;1.20;;;19.50;99.90;;;;;;5060319;28;20616;-67
2022/08/16 03:44:24;;;;;;;1.10;1.10;;;19.50;99.90;;;;;;5059795;28;20306;-67
2022/08/16 03:46:51;;;;;;;1.10;1.10;;;19.40;99.90;;;;;;5064167;28;20286;-68
2022/08/16 03:49:19;;;;;;;1.13;1.13;;;19.40;99.90;;;;;;5061889;28;20327;-67
2022/08/16 03:51:46;;;;;;;1.50;1.40;;;19.30;99.90;;;;;;5058192;28;20254;-68
2022/08/16 03:54:13;;;;;;;1.10;1.10;;;19.30;99.90;;;;;;5061161;28;20200;-67
2022/08/16 03:56:40;;;;;;;1.10;1.10;;;19.20;99.90;;;;;;5051785;28;20311;-67
2022/08/16 03:59:09;;;;;;;1.23;1.20;;;19.20;99.90;;;;;;5063026;28;20318;-69
2022/08/16 04:01:36;;;;;;;1.33;1.33;;;19.20;99.90;;;;;;5057112;28;20286;-67
2022/08/16 04:04:03;;;;;;;1.13;1.13;;;19.10;99.90;;;;;;5063131;28;20196;-66
2022/08/16 04:06:30;;;;;;;1.10;1.10;;;19.00;99.90;;;;;;5061762;28;20192;-69
2022/08/16 04:08:56;;;;;;;1.30;1.30;;;19.10;99.90;;;;;;5059107;28;20697;-66
2022/08/16 04:11:23;;;;;;;1.27;1.27;;;19.00;99.90;;;;;;5060139;28;20303;-69
2022/08/16 04:13:50;;;;;;;1.10;1.10;;;19.00;99.90;;;;;;5059693;28;20362;-66
2022/08/16 04:16:19;;;;;;;1.30;1.30;;;19.00;99.90;;;;;;5061057;28;20224;-67
2022/08/16 04:18:47;;;;;;;1.20;1.20;;;19.00;99.90;;;;;;5058518;28;20293;-68
2022/08/16 04:21:14;;;;;;;1.30;1.30;;;19.10;99.90;;;;;;5067220;28;20265;-67
2022/08/16 04:23:41;;;;;;;1.20;1.10;;;19.00;99.90;;;;;;5067783;28;20285;-65
2022/08/16 04:26:08;;;;;;;1.30;1.30;;;19.00;99.90;;;;;;5066842;28;20199;-66
2022/08/16 04:28:35;;;;;;;1.53;1.43;;;19.00;99.90;;;;;;5065536;28;20227;-68
2022/08/16 04:31:02;;;;;;;1.13;1.13;;;19.10;99.90;;;;;;5064880;28;20211;-67
2022/08/16 04:33:30;;;;;;;1.30;1.30;;;19.00;99.90;;;;;;5066537;28;20302;-67
2022/08/16 04:35:58;;;;;;;1.30;1.30;;;19.00;99.90;;;;;;5063484;28;20251;-64
2022/08/16 04:38:25;;;;;;;1.20;1.20;;;18.90;99.90;;;;;;5065732;28;20255;-69
2022/08/16 04:40:52;;;;;;;1.10;1.10;;;18.90;99.90;;;;;;5057656;28;20211;-69
2022/08/16 04:43:19;;;;;;;1.50;1.35;;;18.80;99.90;;;;;;5065909;28;20298;-68
2022/08/16 04:45:47;;;;;;;1.40;1.30;;;18.80;99.90;;;;;;5064968;28;20199;-67
2022/08/16 04:48:14;;;;;;;1.30;1.20;;;18.70;99.90;;;;;;5066131;28;20272;-72
2022/08/16 04:50:43;;;;;;;1.00;1.00;;;18.70;99.90;;;;;;5065400;28;20286;-66
2022/08/16 04:53:10;;;;;;;1.80;1.30;;;18.70;99.90;;;;;;5059463;28;20195;-67
2022/08/16 04:55:37;;;;;;;1.10;1.10;;;18.80;99.90;;;;;;5071241;28;20219;-68
2022/08/16 04:58:05;;;;;;;1.23;1.23;;;18.80;99.90;;;;;;5066432;28;20259;-67
2022/08/16 05:00:33;;;;;;;1.30;1.30;;;18.80;99.90;;;;;;5066024;28;20286;-68
2022/08/16 05:03:03;;;;;;;1.40;1.40;;;18.90;99.90;;;;;;5064971;28;20211;-66
2022/08/16 05:05:30;;;;;;;1.23;1.23;;;18.80;99.90;;;;;;5054350;28;20196;-67
2022/08/16 05:07:59;;;;;;;1.50;1.40;;;18.90;99.90;;;;;;5053659;28;20330;-67
2022/08/16 05:10:26;;;;;;;1.20;1.20;;;18.90;99.90;;;;;;5053582;28;20243;-67
2022/08/16 05:12:53;;;;;;;1.43;1.40;;;18.90;99.90;;;;;;5066040;28;20635;-67
2022/08/16 05:15:20;;;;;;;1.20;1.20;;;18.90;99.90;;;;;;5065930;28;20265;-67
2022/08/16 05:17:47;;;;;;;1.57;1.30;;;18.90;99.90;;;;;;5056779;28;20311;-68
2022/08/16 05:20:14;;;;;;;1.40;1.40;;;18.90;99.90;;;;;;5059619;28;20238;-68
2022/08/16 05:22:42;;;;;;;1.30;1.30;;;18.90;99.90;;;;;;5053928;28;20265;-66
2022/08/16 05:25:12;;;;;;;1.20;1.20;;;18.80;99.90;;;;;;5067503;28;20204;-66
2022/08/16 05:27:39;;;;;;;1.40;1.30;;;18.90;99.90;;;;;;5054814;28;20581;-66
2022/08/16 05:30:07;;;;;;;1.20;1.20;;;18.90;99.90;;;;;;5061692;28;20223;-67
2022/08/16 05:32:34;;;;;;;1.30;1.30;;;18.90;99.90;;;;;;5064675;28;20418;-67
2022/08/16 05:35:02;;;;;;;1.10;1.10;;;18.90;99.90;;;;;;5064103;28;20298;-67
2022/08/16 05:37:28;;;;;;;1.20;1.20;;;18.90;99.90;;;;;;5061116;28;20338;-68
2022/08/16 05:39:55;;;;;;;1.40;1.30;;;18.90;99.90;;;;;;5063737;28;20230;-68
2022/08/16 05:42:24;;;;;;;1.60;1.50;;;18.90;99.90;;;;;;5065690;28;20222;-67
2022/08/16 05:44:50;;;;;;;1.77;1.50;;;18.90;99.90;;;;;;5062686;28;20250;-67
2022/08/16 05:47:17;;;;;;;1.33;1.33;;;18.90;99.90;;;;;;5066709;28;20202;-67
2022/08/16 05:49:44;;;;;;;1.30;1.30;;;18.90;99.90;;;;;;5061510;28;20251;-68
2022/08/16 05:52:12;;;;;;;1.20;1.20;;;18.90;99.90;;;;;;5064972;28;20203;-67
2022/08/16 05:54:39;;;;;;;1.50;1.40;;;18.90;99.90;;;;;;5061817;28;20618;-67
2022/08/16 05:57:06;;;;;;;1.80;1.40;;;19.00;99.90;;;;;;5061091;28;20635;-67
2022/08/16 05:59:34;;;;;;;1.17;1.17;;;19.10;99.90;;;;;;5052815;28;20319;-68
2022/08/16 06:02:01;;;;;;;1.27;1.27;;;19.20;99.90;;;;;;5057913;28;20286;-68
2022/08/16 06:04:28;;;;;;;1.30;1.30;;;19.40;99.90;;;;;;5065666;28;20214;-67
2022/08/16 06:06:55;;;;;;;1.40;1.30;;;19.60;99.90;;;;;;5064032;28;20689;-70
2022/08/16 06:09:22;;;;;;;1.30;1.30;;;19.70;99.90;;;;;;5066076;28;20237;-66
2022/08/16 06:11:49;;;;;;;1.47;1.37;;;19.80;99.90;;;;;;5062664;28;20402;-67
2022/08/16 06:14:16;;;;;;;1.40;1.30;;;20.00;99.90;;;;;;5059708;28;20650;-67
2022/08/16 06:16:45;;;;;;;1.10;1.10;;;20.20;99.90;;;;;;5060663;28;20706;-69
2022/08/16 06:19:12;;;;;;;1.23;1.23;;;20.20;99.90;;;;;;5057484;28;20219;-66
2022/08/16 06:21:39;;;;;;;1.23;1.23;;;20.40;99.90;;;;;;5063824;28;20677;-67
2022/08/16 06:24:06;;;;;;;1.30;1.20;;;20.60;99.90;;;;;;5062954;28;20218;-66
2022/08/16 06:26:33;;;;;;;1.47;1.37;;;20.70;99.90;;;;;;5057180;28;20577;-67
2022/08/16 06:29:00;;;;;;;1.10;1.10;;;20.80;99.90;;;;;;5062619;28;20676;-67
2022/08/16 06:31:27;;;;;;;1.13;1.13;;;20.90;99.90;;;;;;5055777;28;20693;-66
2022/08/16 06:33:55;;;;;;;1.40;1.30;;;21.00;99.90;;;;;;5054531;28;20286;-66
2022/08/16 06:36:23;;;;;;;1.10;1.10;;;21.10;99.90;;;;;;5071617;28;20219;-65
2022/08/16 06:38:50;;;;;;;1.30;1.20;;;21.20;99.90;;;;;;5080167;28;20230;-65
2022/08/16 06:41:17;;;;;;;1.30;1.30;;;21.40;99.90;;;;;;5070924;28;20211;-66
2022/08/16 06:43:44;;;;;;;1.27;1.27;;;21.50;99.90;;;;;;5080584;28;20199;-69
2022/08/16 06:46:23;;;;;;;1.40;1.30;;;21.60;99.90;;;;;;5075777;28;20264;-69
2022/08/16 06:48:50;;;;;;;1.10;1.10;;;21.60;99.90;;;;;;5080123;28;20226;-66
2022/08/16 06:51:18;;;;;;;1.00;1.00;;;21.70;99.90;;;;;;5057832;28;20227;-65
2022/08/16 06:53:45;;;;;;;1.30;1.20;;;21.80;99.90;;;;;;5067720;28;20204;-66
2022/08/16 06:56:12;;;;;;;1.13;1.10;;;21.90;99.90;;;;;;5057323;28;20311;-66
2022/08/16 06:58:39;;;;;;;1.20;1.20;;;22.10;99.90;;;;;;5065648;28;20225;-67
2022/08/16 07:01:06;;;;;;;1.27;1.20;;;22.30;99.90;;;;;;5057623;28;20282;-66
2022/08/16 07:03:33;;;;;;;1.27;1.17;;;22.50;99.90;;;;;;5060790;28;20227;-67
2022/08/16 07:06:00;;;;;;;1.13;1.10;;;22.60;99.90;;;;;;5059761;28;20231;-66
2022/08/16 07:08:28;;;;;;;1.30;1.20;;;22.80;99.90;;;;;;5059229;28;20279;-65
2022/08/16 07:10:57;;;;;;;1.30;1.20;;;22.90;99.90;;;;;;5061320;28;20208;-68
2022/08/16 07:13:25;;;;;;;1.10;1.10;;;23.10;99.90;;;;;;5055249;28;20231;-67
2022/08/16 07:15:52;;;;;;;1.30;1.20;;;23.30;99.90;;;;;;5065321;28;20204;-67
2022/08/16 07:18:20;;;;;;;1.00;1.00;;;23.40;99.90;;;;;;5063807;28;20222;-66
2022/08/16 07:20:47;;;;;;;1.30;1.30;;;23.40;99.90;;;;;;5063538;28;20246;-65
2022/08/16 07:23:14;;;;;;;1.15;1.15;;;23.40;99.90;;;;;;5067319;28;20230;-66
2022/08/16 07:25:43;;;;;;;1.40;1.37;;;23.50;99.90;;;;;;5061380;28;20208;-65
2022/08/16 07:28:13;;;;;;;1.43;1.20;;;23.50;99.90;;;;;;5053838;28;20315;-67
2022/08/16 07:30:40;;;;;;;1.00;1.00;;;23.60;99.90;;;;;;5059321;28;20306;-67
2022/08/16 07:33:09;;;;;;;1.33;1.30;;;23.70;99.90;;;;;;5063132;28;20283;-66
2022/08/16 07:35:37;;;;;;;1.00;1.00;;;23.70;99.90;;;;;;5056763;28;20208;-67
2022/08/16 07:38:05;;;;;;;1.17;1.17;;;23.70;99.90;;;;;;5047159;28;20219;-66
2022/08/16 07:40:32;;;;;;;1.40;1.30;;;23.80;99.90;;;;;;5058948;28;20208;-66
2022/08/16 07:43:01;;;;;;;1.30;1.20;;;24.00;99.90;;;;;;5062777;28;20211;-66
2022/08/16 07:45:28;;;;;;;1.92;1.30;;;23.90;99.90;;;;;;5056032;28;20631;-65
2022/08/16 07:47:55;;;;;;;1.40;1.30;;;24.00;99.90;;;;;;5053992;28;20231;-66
2022/08/16 07:50:22;;;;;;;1.10;1.10;;;24.10;99.90;;;;;;5043601;28;20208;-66
2022/08/16 07:52:49;;;;;;;1.17;1.17;;;24.30;99.90;;;;;;5049721;28;20623;-66
2022/08/16 07:55:17;;;;;;;1.30;1.30;;;24.40;99.90;;;;;;5053915;28;20214;-68
2022/08/16 07:57:44;;;;;;;1.10;1.10;;;24.60;99.90;;;;;;5053208;28;20224;-66
2022/08/16 08:00:14;;;;;;;1.10;1.10;;;24.60;99.90;;;;;;5055224;28;20254;-68
2022/08/16 08:02:41;;;;;;;1.43;1.33;;;24.70;99.90;;;;;;5056002;28;20208;-67
2022/08/16 08:05:09;;;;;;;2.50;1.30;;;24.70;99.90;;;;;;5053325;28;20199;-67
2022/08/16 08:07:36;;;;;;;1.30;1.20;;;24.70;99.90;;;;;;5052927;28;20199;-65
2022/08/16 08:10:05;;;;;;;1.30;1.20;;;24.60;99.90;;;;;;5046808;28;20203;-68
2022/08/16 08:12:33;;;;;;;1.10;1.10;;;24.80;99.90;;;;;;5053528;28;20201;-66
2022/08/16 08:15:00;;;;;;;1.10;1.10;;;25.00;99.90;;;;;;5053800;28;20466;-66
2022/08/16 08:17:29;;;;;;;1.20;1.20;;;25.20;99.90;;;;;;5051085;28;20228;-67
2022/08/16 08:19:56;;;;;;;1.02;1.02;;;25.30;99.90;;;;;;5054993;28;20577;-69
2022/08/16 08:22:22;;;;;;;1.10;1.10;;;25.40;99.90;;;;;;5055833;28;20682;-66
2022/08/16 08:24:50;;;;;;;1.30;1.30;;;25.40;99.90;;;;;;5047686;28;20211;-67
2022/08/16 08:27:18;;;;;;;1.30;1.20;;;25.50;99.90;;;;;;5053222;28;20258;-66
2022/08/16 08:29:45;;;;;;;1.38;1.10;;;25.60;99.90;;;;;;5046964;28;20228;-67
2022/08/16 08:32:11;;;;;;;1.15;1.15;;;25.80;99.90;;;;;;5044484;28;20293;-67
2022/08/16 08:34:40;;;;;;;0.98;0.98;;;25.90;99.90;;;;;;5049430;28;20197;-67
2022/08/16 08:37:07;;;;;;;1.20;1.17;;;26.00;99.90;;;;;;5047834;28;20230;-66
2022/08/16 08:39:35;;;;;;;1.40;1.30;;;26.30;99.90;;;;;;5048836;28;20243;-68
2022/08/16 08:42:02;;;;;;;1.20;1.20;;;26.40;99.90;;;;;;5040874;28;20259;-69
2022/08/16 08:44:30;;;;;;;1.40;1.30;;;26.30;99.90;;;;;;5045570;28;20215;-66
2022/08/16 08:46:58;;;;;;;1.52;1.23;;;26.20;99.90;;;;;;5046900;28;20200;-66
2022/08/16 08:49:25;;;;;;;1.42;1.33;;;25.90;99.90;;;;;;5050605;28;20614;-66
2022/08/16 08:51:54;;;;;;;1.25;1.15;;;25.70;99.90;;;;;;5046698;28;20204;-68
2022/08/16 08:54:20;;;;;;;1.20;1.20;;;25.90;99.90;;;;;;5040831;28;20242;-68
2022/08/16 08:56:47;;;;;;;1.10;1.10;;;26.10;99.90;;;;;;5049640;28;20235;-67
2022/08/16 08:59:14;;;;;;;1.00;1.00;;;26.10;99.90;;;;;;5046789;28;20277;-68
2022/08/16 09:01:42;;;;;;;0.90;0.90;;;26.20;99.90;;;;;;5047190;28;20221;-67
2022/08/16 09:04:09;;;;;;;1.10;1.10;;;26.20;99.90;;;;;;5044899;28;20231;-66
2022/08/16 09:06:36;;;;;;;1.00;1.00;;;25.90;99.90;;;;;;5056698;28;20283;-68
2022/08/16 09:09:05;;;;;;;1.10;1.10;;;25.80;99.90;;;;;;5065699;28;20314;-67
2022/08/16 09:11:35;;;;;;;1.08;1.08;;;26.00;99.90;;;;;;5061365;28;20211;-67
2022/08/16 09:14:02;;;;;;;0.90;0.90;;;26.40;99.90;;;;;;5048189;28;20195;-68
2022/08/16 09:16:31;;;;;;;1.35;1.20;;;26.60;99.90;;;;;;5047609;28;20220;-67
2022/08/16 09:18:58;;;;;;;1.23;1.13;;;26.80;99.90;;;;;;5051043;28;20223;-68
2022/08/16 09:21:25;;;;;;;1.20;1.20;;;27.00;99.90;;;;;;5048443;28;20206;-67
2022/08/16 09:23:53;;;;;;;1.08;1.08;;;27.10;99.90;;;;;;5047624;28;20258;-66
2022/08/16 09:26:23;;;;;;;1.00;1.00;;;27.20;99.90;;;;;;5042061;28;20675;-67
2022/08/16 09:28:50;;;;;;;0.90;0.90;;;27.40;99.90;;;;;;5046141;28;20227;-66
2022/08/16 09:31:18;;;;;;;1.10;1.10;;;27.00;99.90;;;;;;5048489;28;20288;-66
2022/08/16 09:33:46;;;;;;;1.10;1.10;;;27.10;99.90;;;;;;5041627;28;20271;-68
2022/08/16 09:36:13;;;;;;;1.30;1.20;;;27.40;99.90;;;;;;5048682;28;20233;-69
2022/08/16 09:38:40;;;;;;;1.00;1.00;;;27.40;99.90;;;;;;5043333;28;20656;-67
2022/08/16 09:41:10;;;;;;;0.90;0.90;;;27.40;99.90;;;;;;5052927;28;20234;-67
2022/08/16 09:43:38;;;;;;;1.27;1.27;;;27.50;99.90;;;;;;5046187;28;20203;-67
2022/08/16 09:46:07;;;;;;;1.42;1.33;;;27.50;99.90;;;;;;5053357;28;20199;-68
2022/08/16 09:48:36;;;;;;;1.20;1.10;;;27.40;99.90;;;;;;5049345;28;20224;-69
2022/08/16 09:51:03;;;;;;;1.10;1.10;;;27.10;99.90;;;;;;5051555;28;20205;-68
2022/08/16 09:53:31;;;;;;;1.73;1.10;;;27.00;99.90;;;;;;5050150;28;20201;-67
2022/08/16 09:55:58;;;;;;;1.08;1.08;;;27.00;99.90;;;;;;5045557;28;20643;-68
2022/08/16 09:58:27;;;;;;;1.75;1.00;;;27.30;99.90;;;;;;5039965;28;20228;-68
2022/08/16 10:00:55;;;;;;;0.98;0.98;;;27.30;99.90;;;;;;5044535;28;20200;-67
2022/08/16 10:03:22;;;;;;;0.93;0.93;;;27.20;99.90;;;;;;5045848;28;20335;-67
2022/08/16 10:05:50;;;;;;;1.30;1.20;;;27.20;99.90;;;;;;5047268;28;20575;-68
2022/08/16 10:08:17;;;;;;;1.02;1.02;;;27.40;99.90;;;;;;5050568;28;20296;-66
2022/08/16 10:13:10;;;;;;;1.30;1.20;;;27.60;99.90;;;;;;5053834;28;20283;-68
2022/08/16 10:13:33;;;;;;;1.10;1.10;;;27.80;99.90;;;;;;5042538;28;20215;-66
2022/08/16 10:16:01;;;;;;;1.02;0.98;;;27.60;99.90;;;;;;5046599;28;20203;-67
2022/08/16 10:18:33;;;;;;;1.00;1.00;;;27.70;99.90;;;;;;5049528;28;20227;-67
2022/08/16 10:21:00;;;;;;;0.93;0.93;;;27.90;99.90;;;;;;5048981;28;20575;-66
2022/08/16 10:23:28;;;;;;;1.02;1.02;;;28.20;99.90;;;;;;5058970;28;20204;-68
2022/08/16 10:25:55;;;;;;;0.95;0.95;;;28.00;99.90;;;;;;5053067;28;20314;-68
2022/08/16 10:28:22;;;;;;;1.00;1.00;;;28.10;99.90;;;;;;5040002;28;20274;-66
2022/08/16 10:30:49;;;;;;;1.17;0.90;;;28.20;99.90;;;;;;5051387;28;20230;-67
2022/08/16 10:33:18;;;;;;;1.10;1.10;;;28.20;99.90;;;;;;5042480;28;20196;-66
2022/08/16 10:35:46;;;;;;;1.00;1.00;;;28.30;99.90;;;;;;5043667;28;20235;-65
2022/08/16 10:38:15;;;;;;;0.90;0.90;;;28.50;99.90;;;;;;5041673;28;20223;-68
2022/08/16 10:40:43;;;;;;;1.17;1.00;;;28.60;99.90;;;;;;5041388;28;20616;-67
2022/08/16 10:43:10;;;;;;;1.08;1.08;;;28.90;99.90;;;;;;5042000;28;20343;-67
2022/08/16 10:45:37;;;;;;;1.20;1.20;;;29.00;99.90;;;;;;5042476;28;20201;-66
2022/08/16 10:48:06;;;;;;;0.82;0.82;;;29.20;99.90;;;;;;5049106;28;20306;-65
2022/08/16 10:50:35;;;;;;;1.00;1.00;;;29.40;99.90;;;;;;5041875;28;20675;-65
2022/08/16 10:53:05;;;;;;;1.00;1.00;;;29.30;99.90;;;;;;5045804;28;20255;-68
2022/08/16 10:55:32;;;;;;;0.80;0.80;;;28.80;99.90;;;;;;5044878;28;20204;-66
2022/08/16 10:58:01;;;;;;;1.02;1.02;;;28.40;99.90;;;;;;5052925;28;20231;-66
2022/08/16 11:00:28;;;;;;;0.90;0.90;;;28.40;99.90;;;;;;5043619;28;20230;-67
2022/08/16 11:02:55;;;;;;;1.02;0.90;;;28.50;99.90;;;;;;5047089;28;20217;-68
2022/08/16 11:05:22;;;;;;;0.90;0.90;;;28.60;99.90;;;;;;5041080;28;20209;-68
2022/08/16 11:07:51;;;;;;;0.95;0.95;;;28.80;99.90;;;;;;5048353;28;20216;-66
2022/08/16 11:10:22;;;;;;;0.95;0.95;;;29.10;99.90;;;;;;5050517;28;20200;-68
2022/08/16 11:12:49;;;;;;;1.00;1.00;;;29.30;99.90;;;;;;5052472;28;20208;-68
2022/08/16 11:15:17;;;;;;;1.00;1.00;;;29.40;99.90;;;;;;5044697;28;20239;-68
2022/08/16 11:17:44;;;;;;;0.95;0.90;;;29.40;99.90;;;;;;5042436;28;20753;-67
2022/08/16 11:20:12;;;;;;;1.02;1.02;;;29.40;99.90;;;;;;5059924;28;20199;-67
2022/08/16 11:22:41;;;;;;;1.10;1.10;;;29.30;99.90;;;;;;5057080;28;20285;-67
2022/08/16 11:25:10;;;;;;;0.85;0.85;;;29.40;99.90;;;;;;5045946;28;20200;-66
2022/08/16 11:27:37;;;;;;;0.90;0.90;;;29.50;99.90;;;;;;5042461;28;20223;-67
2022/08/16 11:30:06;;;;;;;1.00;1.00;;;29.60;99.90;;;;;;5051517;28;20203;-67
2022/08/16 11:32:33;;;;;;;0.90;0.90;;;29.60;99.90;;;;;;5043375;28;20232;-67
2022/08/16 11:35:02;;;;;;;1.00;1.00;;;29.70;99.90;;;;;;5045699;28;20247;-66
2022/08/16 11:37:29;;;;;;;1.10;1.00;;;29.70;99.90;;;;;;5051315;28;20229;-68
2022/08/16 11:39:56;;;;;;;0.85;0.85;;;29.80;99.90;;;;;;5047708;28;20204;-67
2022/08/16 11:42:24;;;;;;;1.00;1.00;;;29.90;99.90;;;;;;5051163;28;20208;-67
2022/08/16 11:44:51;;;;;;;0.82;0.82;;;29.90;99.90;;;;;;5052956;28;20580;-68
2022/08/16 11:47:18;;;;;;;0.88;0.88;;;29.70;99.90;;;;;;5050934;28;20199;-67
2022/08/16 11:49:45;;;;;;;0.90;0.90;;;29.80;99.90;;;;;;5056929;28;20220;-68
2022/08/16 11:52:12;;;;;;;1.00;1.00;;;29.90;99.90;;;;;;5072364;28;20204;-69
2022/08/16 11:54:39;;;;;;;1.00;1.00;;;30.10;99.90;;;;;;5074785;28;20258;-69
2022/08/16 11:57:06;;;;;;;0.85;0.85;;;30.20;99.90;;;;;;5061236;28;20664;-67
2022/08/16 11:59:36;;;;;;;0.90;0.90;;;30.20;99.90;;;;;;5045191;28;20732;-68
2022/08/16 12:02:05;;;;;;;0.98;0.98;;;30.10;99.90;;;;;;5050767;28;20218;-69
2022/08/16 12:04:32;;;;;;;0.80;0.80;;;30.20;99.90;;;;;;5038133;28;20605;-67
2022/08/16 12:06:59;;;;;;;0.95;0.95;;;30.30;99.90;;;;;;5044600;28;20216;-66
2022/08/16 12:09:27;;;;;;;0.90;0.90;;;30.10;99.90;;;;;;5046735;28;20302;-67
2022/08/16 12:11:53;;;;;;;0.80;0.80;;;29.90;99.90;;;;;;5046850;28;20209;-67
2022/08/16 12:14:21;;;;;;;0.95;0.95;;;30.00;99.90;;;;;;5043508;28;20644;-67
2022/08/16 12:16:49;;;;;;;0.80;0.80;;;29.90;99.90;;;;;;5041594;28;20201;-66
2022/08/16 12:19:16;;;;;;;1.05;1.02;;;30.10;99.90;;;;;;5051195;28;20761;-67
2022/08/16 12:21:43;;;;;;;0.88;0.88;;;30.30;99.90;;;;;;5044546;28;20197;-68
2022/08/16 12:24:10;;;;;;;0.90;0.90;;;29.90;99.90;;;;;;5045928;28;20402;-68
2022/08/16 12:26:37;;;;;;;0.77;0.77;;;30.00;99.90;;;;;;5045663;28;20204;-68
2022/08/16 12:29:04;;;;;;;0.90;0.90;;;30.20;99.90;;;;;;5047983;28;20223;-68
2022/08/16 12:31:31;;;;;;;0.80;0.80;;;30.20;99.90;;;;;;5047769;28;20263;-66
2022/08/16 12:34:00;;;;;;;0.80;0.80;;;30.40;99.90;;;;;;5044329;28;20230;-67
2022/08/16 12:36:27;;;;;;;1.67;1.10;;;30.50;99.90;;;;;;5047108;28;20228;-68
2022/08/16 12:38:55;;;;;;;1.17;1.08;;;30.50;99.90;;;;;;5051944;28;20320;-67
2022/08/16 12:41:22;;;;;;;0.95;0.95;;;30.60;99.90;;;;;;5054523;28;20502;-68
2022/08/16 12:43:49;;;;;;;0.70;0.70;;;30.70;99.90;;;;;;5050818;28;20219;-66
2022/08/16 12:46:16;;;;;;;0.70;0.70;;;30.70;99.90;;;;;;5043909;28;20282;-66
2022/08/16 12:48:56;;;;;;;0.82;0.82;;;30.80;99.90;;;;;;5047232;28;20252;-67
2022/08/16 12:51:27;;;;;;;0.80;0.80;;;30.70;99.90;;;;;;5043731;28;20205;-67